หน้าหลัก
METAR-TAF:

METAR-TAF

ท่าอากาศยาน :

ท่าอากาศยานนานาชาติแอลบูเคอร์คี

แอลบูเคอร์คี, นิวเม็กซิโก, สหรัฐอเมริกา

ละติจูด: 35-02-30N, ลองจิจูด: 106-36-53W, ความสูง: 1631 ม.

การสังเกตสภาพอากาศปัจจุบัน

รายงานได้ทำขึ้นเมื่อ 18 นาทีที่แล้ว ณ เวลา 14:52 UTC
ลม 5 นอตจากเหนือ/ตะวันตกเฉียงเหนือ
อุณหภูมิ 23°C
ความชื้น 47%
ความกดอากาศ 1023 hPa
ทัศนวิสัย: 16.1 กม.
ท้องฟ้าแจ่มใส

METAR: KABQ 121452Z 34005KT 10SM CLR 23/11 A3021 RMK AO2 SLP146 T02330111 51009

เวลา: 09:10 (15:10 UTC)

การพยากรณ์

รายงานได้ทำขึ้นเมื่อ 3 ชั่วโมงและ 50 นาทีที่แล้ว ณ เวลา 11:20 UTC
การพยากรณ์มีผลตั้งแต่วันที่ 12 ณ เวลา 12 UTC จนถึงวันที่ 13 ณ เวลา 12 UTC
ลม 6 นอตจากทิศทางซึ่งแปรผันได้
ทัศนวิสัย: 10 กม.
ท้องฟ้าแจ่มใส
จาก 12 ณ เวลา 2100 UTC
ลม 8 นอตจากตะวันตก
ทัศนวิสัย: 10 กม.
มีเมฆน้อยที่ความสูง 15000 ฟุต
จาก 13 ณ เวลา 0200 UTC
ลม 6 นอตจากตะวันออก
ทัศนวิสัย: 10 กม.
มีเมฆกระจายเป็นบางส่วนที่ความสูง 15000 ฟุต

TAF: KABQ 121120Z 1212/1312 VRB06KT P6SM SKC FM122100 27008KT P6SM FEW150 FM130200 08006KT P6SM SCT150

สังเกตการณ์สภาพอากาศและพยากรณ์อากาศของสนามบินมากกว่า 4000 แห่ง (รายงาน METAR และ TAF).

สถานีที่ดูได้จะแสดงไว้ด้วยจุดสีเหลืองและสีแดงบนแผนที่.

เลื่อนเมาส์ไปเหนือจุดเพื่อดูชื่อสถานี.

แล้วคลิกเพื่อดูสังเกตการณ์และการพยากรณ์สภาพอากาศ.

ในการเปลี่ยนแผนที่: คลิกที่ปุ่มสีเขียวที่มีกากบาทสีดำเพื่อซูมเข้า; ที่ปุ่มสีเขียวที่มีขีดเพื่อซูมออก; หรือที่ลูกศรสีเขียวเพื่อไปยังแผนที่ที่อยู่ติดกัน.


METAR-TAF: